sensor_id;sensor_type;location;lat;lon;timestamp;temperature;humidity
20831;DHT22;10576;53.556;9.868;2023-04-03T00:01:15;1.10;99.90
20831;DHT22;10576;53.556;9.868;2023-04-03T00:06:09;1.00;99.90
20831;DHT22;10576;53.556;9.868;2023-04-03T00:08:37;1.00;99.90
20831;DHT22;10576;53.556;9.868;2023-04-03T00:13:30;0.90;99.90
20831;DHT22;10576;53.556;9.868;2023-04-03T00:20:50;1.00;99.90
20831;DHT22;10576;53.556;9.868;2023-04-03T00:25:42;0.90;99.90
20831;DHT22;10576;53.556;9.868;2023-04-03T00:28:09;0.80;99.90
20831;DHT22;10576;53.556;9.868;2023-04-03T00:33:01;0.80;99.90
20831;DHT22;10576;53.556;9.868;2023-04-03T00:35:27;0.90;99.90
20831;DHT22;10576;53.556;9.868;2023-04-03T00:37:55;0.80;99.90
20831;DHT22;10576;53.556;9.868;2023-04-03T00:40:24;0.90;99.90
20831;DHT22;10576;53.556;9.868;2023-04-03T00:43:05;0.90;99.90
20831;DHT22;10576;53.556;9.868;2023-04-03T00:45:40;0.80;99.90
20831;DHT22;10576;53.556;9.868;2023-04-03T00:48:09;0.80;99.90
20831;DHT22;10576;53.556;9.868;2023-04-03T00:50:38;0.80;99.90
20831;DHT22;10576;53.556;9.868;2023-04-03T00:55:31;0.80;99.90
20831;DHT22;10576;53.556;9.868;2023-04-03T01:00:24;0.70;99.90
20831;DHT22;10576;53.556;9.868;2023-04-03T01:05:17;0.80;99.90
20831;DHT22;10576;53.556;9.868;2023-04-03T01:07:45;0.70;99.90
20831;DHT22;10576;53.556;9.868;2023-04-03T01:10:14;0.60;99.90
20831;DHT22;10576;53.556;9.868;2023-04-03T01:12:42;0.60;99.90
20831;DHT22;10576;53.556;9.868;2023-04-03T01:15:14;0.60;99.90
20831;DHT22;10576;53.556;9.868;2023-04-03T01:25:31;0.50;99.90
20831;DHT22;10576;53.556;9.868;2023-04-03T01:27:56;0.50;99.90
20831;DHT22;10576;53.556;9.868;2023-04-03T01:30:28;0.40;99.90
20831;DHT22;10576;53.556;9.868;2023-04-03T01:35:21;0.60;99.90
20831;DHT22;10576;53.556;9.868;2023-04-03T01:40:13;0.40;99.90
20831;DHT22;10576;53.556;9.868;2023-04-03T01:49:57;0.40;99.90
20831;DHT22;10576;53.556;9.868;2023-04-03T01:54:48;0.40;99.90
20831;DHT22;10576;53.556;9.868;2023-04-03T01:57:14;0.40;99.90
20831;DHT22;10576;53.556;9.868;2023-04-03T01:59:40;0.30;99.90
20831;DHT22;10576;53.556;9.868;2023-04-03T02:04:32;0.30;99.90
20831;DHT22;10576;53.556;9.868;2023-04-03T02:06:58;0.30;99.90
20831;DHT22;10576;53.556;9.868;2023-04-03T02:09:24;0.20;99.90
20831;DHT22;10576;53.556;9.868;2023-04-03T02:14:15;0.30;99.90
20831;DHT22;10576;53.556;9.868;2023-04-03T02:16:41;0.30;99.90
20831;DHT22;10576;53.556;9.868;2023-04-03T02:19:07;0.10;99.90
20831;DHT22;10576;53.556;9.868;2023-04-03T02:21:32;0.20;99.90
20831;DHT22;10576;53.556;9.868;2023-04-03T02:23:58;0.30;99.90
20831;DHT22;10576;53.556;9.868;2023-04-03T02:31:17;0.20;99.90
20831;DHT22;10576;53.556;9.868;2023-04-03T02:33:43;0.30;99.90
20831;DHT22;10576;53.556;9.868;2023-04-03T02:36:09;0.20;99.90
20831;DHT22;10576;53.556;9.868;2023-04-03T02:38:35;0.20;99.90
20831;DHT22;10576;53.556;9.868;2023-04-03T02:41:02;0.20;99.90
20831;DHT22;10576;53.556;9.868;2023-04-03T02:45:54;0.20;99.90
20831;DHT22;10576;53.556;9.868;2023-04-03T02:48:20;0.10;99.90
20831;DHT22;10576;53.556;9.868;2023-04-03T02:50:45;0.10;99.90
20831;DHT22;10576;53.556;9.868;2023-04-03T02:55:37;0.00;99.90
20831;DHT22;10576;53.556;9.868;2023-04-03T03:00:29;0.00;99.90
20831;DHT22;10576;53.556;9.868;2023-04-03T03:05:21;0.00;99.90
20831;DHT22;10576;53.556;9.868;2023-04-03T03:10:13;-0.10;99.90
20831;DHT22;10576;53.556;9.868;2023-04-03T03:15:06;0.00;99.90
20831;DHT22;10576;53.556;9.868;2023-04-03T03:19:58;0.50;99.90
20831;DHT22;10576;53.556;9.868;2023-04-03T03:27:16;-0.20;99.90
20831;DHT22;10576;53.556;9.868;2023-04-03T03:29:42;-0.10;99.90
20831;DHT22;10576;53.556;9.868;2023-04-03T03:34:34;-0.20;99.90
20831;DHT22;10576;53.556;9.868;2023-04-03T03:39:26;-0.20;99.90
20831;DHT22;10576;53.556;9.868;2023-04-03T03:49:11;-0.20;99.90
20831;DHT22;10576;53.556;9.868;2023-04-03T03:54:03;-0.30;99.90
20831;DHT22;10576;53.556;9.868;2023-04-03T03:58:55;-0.30;99.90
20831;DHT22;10576;53.556;9.868;2023-04-03T04:01:22;-0.30;99.90
20831;DHT22;10576;53.556;9.868;2023-04-03T04:03:48;-0.20;99.90
20831;DHT22;10576;53.556;9.868;2023-04-03T04:08:40;-0.40;99.90
20831;DHT22;10576;53.556;9.868;2023-04-03T04:13:32;-0.40;99.90
20831;DHT22;10576;53.556;9.868;2023-04-03T04:18:23;-0.40;99.90
20831;DHT22;10576;53.556;9.868;2023-04-03T04:25:44;-0.40;99.90
20831;DHT22;10576;53.556;9.868;2023-04-03T04:30:37;-0.50;99.90
20831;DHT22;10576;53.556;9.868;2023-04-03T04:35:29;-0.50;99.90
20831;DHT22;10576;53.556;9.868;2023-04-03T04:45:12;-0.50;99.90
20831;DHT22;10576;53.556;9.868;2023-04-03T04:59:48;-0.40;99.90
20831;DHT22;10576;53.556;9.868;2023-04-03T05:04:40;-0.40;99.90
20831;DHT22;10576;53.556;9.868;2023-04-03T05:14:24;-0.40;99.90
20831;DHT22;10576;53.556;9.868;2023-04-03T05:19:21;-0.40;99.90
20831;DHT22;10576;53.556;9.868;2023-04-03T05:24:14;-0.40;99.90
20831;DHT22;10576;53.556;9.868;2023-04-03T05:31:33;-0.50;99.90
20831;DHT22;10576;53.556;9.868;2023-04-03T05:33:59;-0.40;99.90
20831;DHT22;10576;53.556;9.868;2023-04-03T05:38:51;-0.20;99.90
20831;DHT22;10576;53.556;9.868;2023-04-03T05:41:17;-0.20;99.90
20831;DHT22;10576;53.556;9.868;2023-04-03T05:46:11;-0.10;99.90
20831;DHT22;10576;53.556;9.868;2023-04-03T05:48:37;-0.10;99.90
20831;DHT22;10576;53.556;9.868;2023-04-03T05:53:31;0.00;99.90
20831;DHT22;10576;53.556;9.868;2023-04-03T06:03:16;0.30;99.90
20831;DHT22;10576;53.556;9.868;2023-04-03T06:08:08;0.30;99.90
20831;DHT22;10576;53.556;9.868;2023-04-03T06:22:47;1.10;99.90
20831;DHT22;10576;53.556;9.868;2023-04-03T06:39:51;2.50;99.90
20831;DHT22;10576;53.556;9.868;2023-04-03T06:44:43;2.50;99.90
20831;DHT22;10576;53.556;9.868;2023-04-03T06:47:16;2.70;99.90
20831;DHT22;10576;53.556;9.868;2023-04-03T06:49:43;2.80;99.90
20831;DHT22;10576;53.556;9.868;2023-04-03T06:52:09;3.00;99.90
20831;DHT22;10576;53.556;9.868;2023-04-03T07:09:14;5.00;99.90
20831;DHT22;10576;53.556;9.868;2023-04-03T07:14:06;5.70;99.90
20831;DHT22;10576;53.556;9.868;2023-04-03T07:18:59;6.20;99.90
20831;DHT22;10576;53.556;9.868;2023-04-03T07:33:39;5.90;99.90
20831;DHT22;10576;53.556;9.868;2023-04-03T07:36:07;5.40;99.90
20831;DHT22;10576;53.556;9.868;2023-04-03T07:45:51;6.00;99.90
20831;DHT22;10576;53.556;9.868;2023-04-03T07:48:22;5.90;99.90
20831;DHT22;10576;53.556;9.868;2023-04-03T07:50:48;6.50;99.90
20831;DHT22;10576;53.556;9.868;2023-04-03T07:55:40;6.40;99.90
20831;DHT22;10576;53.556;9.868;2023-04-03T07:58:12;6.90;99.90
20831;DHT22;10576;53.556;9.868;2023-04-03T08:00:40;6.60;99.90
20831;DHT22;10576;53.556;9.868;2023-04-03T08:03:07;6.50;99.90
20831;DHT22;10576;53.556;9.868;2023-04-03T08:05:39;7.30;99.90
20831;DHT22;10576;53.556;9.868;2023-04-03T08:08:05;6.60;99.90
20831;DHT22;10576;53.556;9.868;2023-04-03T08:10:31;7.40;99.90
20831;DHT22;10576;53.556;9.868;2023-04-03T08:12:57;7.90;99.90
20831;DHT22;10576;53.556;9.868;2023-04-03T08:15:22;9.00;99.90
20831;DHT22;10576;53.556;9.868;2023-04-03T08:17:49;9.60;99.90
20831;DHT22;10576;53.556;9.868;2023-04-03T08:20:16;9.50;99.90
20831;DHT22;10576;53.556;9.868;2023-04-03T08:22:41;8.90;99.90
20831;DHT22;10576;53.556;9.868;2023-04-03T08:25:07;9.20;99.90
20831;DHT22;10576;53.556;9.868;2023-04-03T08:27:33;9.90;99.90
20831;DHT22;10576;53.556;9.868;2023-04-03T08:29:59;10.10;99.90
20831;DHT22;10576;53.556;9.868;2023-04-03T08:32:25;10.30;99.90
20831;DHT22;10576;53.556;9.868;2023-04-03T08:34:51;10.00;99.90
20831;DHT22;10576;53.556;9.868;2023-04-03T08:37:16;9.70;99.90
20831;DHT22;10576;53.556;9.868;2023-04-03T08:39:43;10.60;99.90
20831;DHT22;10576;53.556;9.868;2023-04-03T08:45:08;9.40;99.90
20831;DHT22;10576;53.556;9.868;2023-04-03T08:48:00;9.20;99.90
20831;DHT22;10576;53.556;9.868;2023-04-03T08:50:39;10.40;99.90
20831;DHT22;10576;53.556;9.868;2023-04-03T08:53:06;10.50;99.90
20831;DHT22;10576;53.556;9.868;2023-04-03T08:55:45;11.10;99.90
20831;DHT22;10576;53.556;9.868;2023-04-03T08:58:23;10.90;99.90
20831;DHT22;10576;53.556;9.868;2023-04-03T09:03:53;10.80;99.90
20831;DHT22;10576;53.556;9.868;2023-04-03T09:06:26;10.00;99.90
20831;DHT22;10576;53.556;9.868;2023-04-03T09:11:36;10.50;99.90
20831;DHT22;10576;53.556;9.868;2023-04-03T09:16:55;11.30;99.90
20831;DHT22;10576;53.556;9.868;2023-04-03T09:19:39;9.80;99.20
20831;DHT22;10576;53.556;9.868;2023-04-03T09:22:17;10.50;99.90
20831;DHT22;10576;53.556;9.868;2023-04-03T09:24:47;10.40;99.90
20831;DHT22;10576;53.556;9.868;2023-04-03T09:27:14;11.20;99.90
20831;DHT22;10576;53.556;9.868;2023-04-03T09:29:41;11.70;99.90
20831;DHT22;10576;53.556;9.868;2023-04-03T09:32:29;11.90;97.50
20831;DHT22;10576;53.556;9.868;2023-04-03T09:34:59;9.80;95.00
20831;DHT22;10576;53.556;9.868;2023-04-03T09:37:44;9.80;96.90
20831;DHT22;10576;53.556;9.868;2023-04-03T09:42:52;10.00;96.70
20831;DHT22;10576;53.556;9.868;2023-04-03T09:45:28;10.30;99.20
20831;DHT22;10576;53.556;9.868;2023-04-03T09:48:16;10.60;98.60
20831;DHT22;10576;53.556;9.868;2023-04-03T09:51:00;11.40;92.30
20831;DHT22;10576;53.556;9.868;2023-04-03T09:53:43;11.40;95.60
20831;DHT22;10576;53.556;9.868;2023-04-03T09:58:51;10.60;90.30
20831;DHT22;10576;53.556;9.868;2023-04-03T10:06:32;9.20;89.70
20831;DHT22;10576;53.556;9.868;2023-04-03T10:09:05;9.30;92.50
20831;DHT22;10576;53.556;9.868;2023-04-03T10:11:31;10.10;93.30
20831;DHT22;10576;53.556;9.868;2023-04-03T10:14:02;10.40;93.80
20831;DHT22;10576;53.556;9.868;2023-04-03T10:16:38;10.50;91.80
20831;DHT22;10576;53.556;9.868;2023-04-03T10:28:00;10.90;90.60
20831;DHT22;10576;53.556;9.868;2023-04-03T10:33:01;10.80;89.70
20831;DHT22;10576;53.556;9.868;2023-04-03T10:41:10;11.50;92.50
20831;DHT22;10576;53.556;9.868;2023-04-03T10:46:18;11.50;91.90
20831;DHT22;10576;53.556;9.868;2023-04-03T10:54:20;12.50;89.20
20831;DHT22;10576;53.556;9.868;2023-04-03T10:57:01;12.70;92.50
20831;DHT22;10576;53.556;9.868;2023-04-03T11:04:39;11.70;89.70
20831;DHT22;10576;53.556;9.868;2023-04-03T11:07:24;12.00;92.10
20831;DHT22;10576;53.556;9.868;2023-04-03T11:09:58;12.00;90.30
20831;DHT22;10576;53.556;9.868;2023-04-03T11:12:46;12.20;90.70
20831;DHT22;10576;53.556;9.868;2023-04-03T11:15:17;12.40;85.50
20831;DHT22;10576;53.556;9.868;2023-04-03T11:17:54;12.40;89.80
20831;DHT22;10576;53.556;9.868;2023-04-03T11:20:29;11.30;82.40
20831;DHT22;10576;53.556;9.868;2023-04-03T11:23:04;11.10;81.30
20831;DHT22;10576;53.556;9.868;2023-04-03T11:25:33;9.90;83.60
20831;DHT22;10576;53.556;9.868;2023-04-03T11:28:02;9.80;83.70
20831;DHT22;10576;53.556;9.868;2023-04-03T11:36:10;11.40;85.40
20831;DHT22;10576;53.556;9.868;2023-04-03T11:38:42;11.10;83.50
20831;DHT22;10576;53.556;9.868;2023-04-03T11:41:09;11.10;81.60
20831;DHT22;10576;53.556;9.868;2023-04-03T11:43:41;11.10;86.40
20831;DHT22;10576;53.556;9.868;2023-04-03T11:46:08;11.00;83.90
20831;DHT22;10576;53.556;9.868;2023-04-03T11:53:38;10.60;85.20
20831;DHT22;10576;53.556;9.868;2023-04-03T12:04:15;11.50;87.30
20831;DHT22;10576;53.556;9.868;2023-04-03T12:06:50;11.50;88.90
20831;DHT22;10576;53.556;9.868;2023-04-03T12:09:29;11.50;87.90
20831;DHT22;10576;53.556;9.868;2023-04-03T12:11:56;10.80;85.40
20831;DHT22;10576;53.556;9.868;2023-04-03T12:14:24;9.60;85.00
20831;DHT22;10576;53.556;9.868;2023-04-03T12:16:53;9.70;90.20
20831;DHT22;10576;53.556;9.868;2023-04-03T12:19:39;9.70;90.30
20831;DHT22;10576;53.556;9.868;2023-04-03T12:22:13;9.60;89.20
20831;DHT22;10576;53.556;9.868;2023-04-03T12:24:44;9.70;90.20
20831;DHT22;10576;53.556;9.868;2023-04-03T12:32:43;10.40;87.60
20831;DHT22;10576;53.556;9.868;2023-04-03T12:35:31;9.60;91.20
20831;DHT22;10576;53.556;9.868;2023-04-03T12:40:57;8.70;90.20
20831;DHT22;10576;53.556;9.868;2023-04-03T12:46:15;9.10;92.20
20831;DHT22;10576;53.556;9.868;2023-04-03T12:48:49;9.30;90.10
20831;DHT22;10576;53.556;9.868;2023-04-03T12:51:38;9.00;89.40
20831;DHT22;10576;53.556;9.868;2023-04-03T12:54:32;9.10;90.30
20831;DHT22;10576;53.556;9.868;2023-04-03T12:57:19;8.90;86.80
20831;DHT22;10576;53.556;9.868;2023-04-03T12:59:45;8.30;87.90
20831;DHT22;10576;53.556;9.868;2023-04-03T13:02:24;8.80;88.70
20831;DHT22;10576;53.556;9.868;2023-04-03T13:04:58;8.90;90.50
20831;DHT22;10576;53.556;9.868;2023-04-03T13:09:57;9.40;84.40
20831;DHT22;10576;53.556;9.868;2023-04-03T13:12:23;9.50;85.50
20831;DHT22;10576;53.556;9.868;2023-04-03T13:14:57;9.60;86.80
20831;DHT22;10576;53.556;9.868;2023-04-03T13:17:24;9.40;85.90
20831;DHT22;10576;53.556;9.868;2023-04-03T13:19:52;9.50;88.00
20831;DHT22;10576;53.556;9.868;2023-04-03T13:22:32;9.50;90.00
20831;DHT22;10576;53.556;9.868;2023-04-03T13:25:00;9.60;83.20
20831;DHT22;10576;53.556;9.868;2023-04-03T13:27:28;9.20;85.60
20831;DHT22;10576;53.556;9.868;2023-04-03T13:29:58;9.80;85.80
20831;DHT22;10576;53.556;9.868;2023-04-03T13:32:27;9.60;86.40
20831;DHT22;10576;53.556;9.868;2023-04-03T13:34:53;9.50;88.40
20831;DHT22;10576;53.556;9.868;2023-04-03T13:37:31;9.60;84.60
20831;DHT22;10576;53.556;9.868;2023-04-03T13:42:31;9.20;84.30
20831;DHT22;10576;53.556;9.868;2023-04-03T13:45:24;9.00;86.50
20831;DHT22;10576;53.556;9.868;2023-04-03T13:48:08;8.60;81.70
20831;DHT22;10576;53.556;9.868;2023-04-03T13:50:51;9.00;85.00
20831;DHT22;10576;53.556;9.868;2023-04-03T13:53:18;9.20;86.70
20831;DHT22;10576;53.556;9.868;2023-04-03T13:56:09;9.40;87.00
20831;DHT22;10576;53.556;9.868;2023-04-03T13:58:36;9.00;81.40
20831;DHT22;10576;53.556;9.868;2023-04-03T14:01:18;9.20;83.50
20831;DHT22;10576;53.556;9.868;2023-04-03T14:03:46;9.10;85.30
20831;DHT22;10576;53.556;9.868;2023-04-03T14:06:15;9.20;87.00
20831;DHT22;10576;53.556;9.868;2023-04-03T14:08:43;9.10;85.70
20831;DHT22;10576;53.556;9.868;2023-04-03T14:11:16;8.90;86.10
20831;DHT22;10576;53.556;9.868;2023-04-03T14:13:44;9.00;86.20
20831;DHT22;10576;53.556;9.868;2023-04-03T14:16:15;8.90;87.80
20831;DHT22;10576;53.556;9.868;2023-04-03T14:18:43;9.30;86.20
20831;DHT22;10576;53.556;9.868;2023-04-03T14:21:14;8.70;83.20
20831;DHT22;10576;53.556;9.868;2023-04-03T14:23:39;8.70;85.70
20831;DHT22;10576;53.556;9.868;2023-04-03T14:26:14;8.10;86.00
20831;DHT22;10576;53.556;9.868;2023-04-03T14:28:42;8.10;83.90
20831;DHT22;10576;53.556;9.868;2023-04-03T14:31:10;7.70;84.80
20831;DHT22;10576;53.556;9.868;2023-04-03T14:33:37;8.00;84.60
20831;DHT22;10576;53.556;9.868;2023-04-03T14:38:37;8.00;84.70
20831;DHT22;10576;53.556;9.868;2023-04-03T14:41:03;8.20;87.50
20831;DHT22;10576;53.556;9.868;2023-04-03T14:43:28;8.60;89.00
20831;DHT22;10576;53.556;9.868;2023-04-03T14:45:54;8.60;89.70
20831;DHT22;10576;53.556;9.868;2023-04-03T14:48:25;8.40;87.70
20831;DHT22;10576;53.556;9.868;2023-04-03T14:50:52;8.10;85.40
20831;DHT22;10576;53.556;9.868;2023-04-03T14:53:19;8.30;86.80
20831;DHT22;10576;53.556;9.868;2023-04-03T14:55:49;8.20;88.80
20831;DHT22;10576;53.556;9.868;2023-04-03T14:58:17;8.40;86.30
20831;DHT22;10576;53.556;9.868;2023-04-03T15:00:44;8.60;85.50
20831;DHT22;10576;53.556;9.868;2023-04-03T15:03:14;8.30;85.50
20831;DHT22;10576;53.556;9.868;2023-04-03T15:05:42;8.40;88.80
20831;DHT22;10576;53.556;9.868;2023-04-03T15:08:18;8.20;84.90
20831;DHT22;10576;53.556;9.868;2023-04-03T15:10:44;8.40;88.20
20831;DHT22;10576;53.556;9.868;2023-04-03T15:13:12;8.40;89.60
20831;DHT22;10576;53.556;9.868;2023-04-03T15:15:38;8.30;89.10
20831;DHT22;10576;53.556;9.868;2023-04-03T15:18:04;8.40;90.10
20831;DHT22;10576;53.556;9.868;2023-04-03T15:20:30;8.50;90.60
20831;DHT22;10576;53.556;9.868;2023-04-03T15:22:59;8.50;90.90
20831;DHT22;10576;53.556;9.868;2023-04-03T15:25:28;8.10;90.50
20831;DHT22;10576;53.556;9.868;2023-04-03T15:27:55;7.90;90.20
20831;DHT22;10576;53.556;9.868;2023-04-03T15:30:21;7.80;89.50
20831;DHT22;10576;53.556;9.868;2023-04-03T15:32:47;7.70;90.30
20831;DHT22;10576;53.556;9.868;2023-04-03T15:35:13;8.00;91.20
20831;DHT22;10576;53.556;9.868;2023-04-03T15:37:39;8.10;91.70
20831;DHT22;10576;53.556;9.868;2023-04-03T15:40:06;8.00;91.20
20831;DHT22;10576;53.556;9.868;2023-04-03T15:42:32;8.10;91.00
20831;DHT22;10576;53.556;9.868;2023-04-03T15:44:58;7.60;90.90
20831;DHT22;10576;53.556;9.868;2023-04-03T15:47:25;7.80;92.10
20831;DHT22;10576;53.556;9.868;2023-04-03T15:49:52;7.90;92.70
20831;DHT22;10576;53.556;9.868;2023-04-03T15:52:18;7.90;92.10
20831;DHT22;10576;53.556;9.868;2023-04-03T15:54:44;7.70;92.30
20831;DHT22;10576;53.556;9.868;2023-04-03T15:57:10;7.90;91.80
20831;DHT22;10576;53.556;9.868;2023-04-03T15:59:35;7.60;91.80
20831;DHT22;10576;53.556;9.868;2023-04-03T16:02:03;7.50;92.40
20831;DHT22;10576;53.556;9.868;2023-04-03T16:04:31;7.60;92.50
20831;DHT22;10576;53.556;9.868;2023-04-03T16:06:57;7.30;92.80
20831;DHT22;10576;53.556;9.868;2023-04-03T16:09:26;7.10;92.80
20831;DHT22;10576;53.556;9.868;2023-04-03T16:11:51;7.10;93.40
20831;DHT22;10576;53.556;9.868;2023-04-03T16:14:17;7.10;93.60
20831;DHT22;10576;53.556;9.868;2023-04-03T16:16:43;6.90;93.60
20831;DHT22;10576;53.556;9.868;2023-04-03T16:19:09;7.20;93.90
20831;DHT22;10576;53.556;9.868;2023-04-03T16:21:35;7.00;94.20
20831;DHT22;10576;53.556;9.868;2023-04-03T16:24:01;7.00;93.60
20831;DHT22;10576;53.556;9.868;2023-04-03T16:26:27;7.00;94.00
20831;DHT22;10576;53.556;9.868;2023-04-03T16:28:53;7.00;93.90
20831;DHT22;10576;53.556;9.868;2023-04-03T16:31:19;7.00;94.10
20831;DHT22;10576;53.556;9.868;2023-04-03T16:33:46;7.20;94.50
20831;DHT22;10576;53.556;9.868;2023-04-03T16:36:11;7.10;94.30
20831;DHT22;10576;53.556;9.868;2023-04-03T16:38:37;6.90;94.50
20831;DHT22;10576;53.556;9.868;2023-04-03T16:41:02;6.90;94.60
20831;DHT22;10576;53.556;9.868;2023-04-03T16:43:33;7.00;95.20
20831;DHT22;10576;53.556;9.868;2023-04-03T16:46:00;7.00;94.70
20831;DHT22;10576;53.556;9.868;2023-04-03T16:48:28;6.90;95.60
20831;DHT22;10576;53.556;9.868;2023-04-03T16:50:54;6.80;95.30
20831;DHT22;10576;53.556;9.868;2023-04-03T16:53:24;6.80;95.30
20831;DHT22;10576;53.556;9.868;2023-04-03T16:55:50;6.60;95.00
20831;DHT22;10576;53.556;9.868;2023-04-03T16:58:16;6.80;95.20
20831;DHT22;10576;53.556;9.868;2023-04-03T17:00:42;6.70;97.00
20831;DHT22;10576;53.556;9.868;2023-04-03T17:03:08;6.60;96.90
20831;DHT22;10576;53.556;9.868;2023-04-03T17:05:34;6.60;96.80
20831;DHT22;10576;53.556;9.868;2023-04-03T17:08:00;6.40;97.20
20831;DHT22;10576;53.556;9.868;2023-04-03T17:10:27;6.20;97.70
20831;DHT22;10576;53.556;9.868;2023-04-03T17:12:53;6.30;98.00
20831;DHT22;10576;53.556;9.868;2023-04-03T17:15:20;6.30;98.00
20831;DHT22;10576;53.556;9.868;2023-04-03T17:17:47;6.00;98.30
20831;DHT22;10576;53.556;9.868;2023-04-03T17:20:13;5.90;99.20
20831;DHT22;10576;53.556;9.868;2023-04-03T17:22:39;5.80;99.30
20831;DHT22;10576;53.556;9.868;2023-04-03T17:25:05;5.80;99.40
20831;DHT22;10576;53.556;9.868;2023-04-03T17:27:31;5.90;99.90
20831;DHT22;10576;53.556;9.868;2023-04-03T17:29:56;5.80;99.90
20831;DHT22;10576;53.556;9.868;2023-04-03T17:32:22;5.80;99.90
20831;DHT22;10576;53.556;9.868;2023-04-03T17:34:50;5.90;99.90
20831;DHT22;10576;53.556;9.868;2023-04-03T17:37:16;5.60;99.90
20831;DHT22;10576;53.556;9.868;2023-04-03T17:42:08;5.70;99.90
20831;DHT22;10576;53.556;9.868;2023-04-03T17:44:33;5.50;99.90
20831;DHT22;10576;53.556;9.868;2023-04-03T17:46:59;5.50;99.90
20831;DHT22;10576;53.556;9.868;2023-04-03T17:49:25;5.40;99.90
20831;DHT22;10576;53.556;9.868;2023-04-03T17:51:50;5.70;99.90
20831;DHT22;10576;53.556;9.868;2023-04-03T17:54:18;5.50;99.90
20831;DHT22;10576;53.556;9.868;2023-04-03T17:56:43;5.50;99.90
20831;DHT22;10576;53.556;9.868;2023-04-03T17:59:13;5.30;99.90
20831;DHT22;10576;53.556;9.868;2023-04-03T18:01:39;5.20;99.90
20831;DHT22;10576;53.556;9.868;2023-04-03T18:04:05;5.40;99.90
20831;DHT22;10576;53.556;9.868;2023-04-03T18:06:33;5.30;99.90
20831;DHT22;10576;53.556;9.868;2023-04-03T18:09:10;5.10;99.90
20831;DHT22;10576;53.556;9.868;2023-04-03T18:11:38;5.10;99.90
20831;DHT22;10576;53.556;9.868;2023-04-03T18:14:07;5.20;99.90
20831;DHT22;10576;53.556;9.868;2023-04-03T18:16:33;5.10;99.90
20831;DHT22;10576;53.556;9.868;2023-04-03T18:18:59;4.80;99.90
20831;DHT22;10576;53.556;9.868;2023-04-03T18:21:25;5.20;99.90
20831;DHT22;10576;53.556;9.868;2023-04-03T18:23:53;4.80;99.90
20831;DHT22;10576;53.556;9.868;2023-04-03T18:26:20;4.90;99.90
20831;DHT22;10576;53.556;9.868;2023-04-03T18:28:49;4.80;99.90
20831;DHT22;10576;53.556;9.868;2023-04-03T18:31:19;4.60;99.90
20831;DHT22;10576;53.556;9.868;2023-04-03T18:33:45;4.60;99.90
20831;DHT22;10576;53.556;9.868;2023-04-03T18:36:11;4.50;99.90
20831;DHT22;10576;53.556;9.868;2023-04-03T18:38:36;4.70;99.90
20831;DHT22;10576;53.556;9.868;2023-04-03T18:41:03;4.70;99.90
20831;DHT22;10576;53.556;9.868;2023-04-03T18:43:30;4.60;99.90
20831;DHT22;10576;53.556;9.868;2023-04-03T18:45:56;4.50;99.90
20831;DHT22;10576;53.556;9.868;2023-04-03T18:48:21;4.40;99.90
20831;DHT22;10576;53.556;9.868;2023-04-03T18:50:47;4.50;99.90
20831;DHT22;10576;53.556;9.868;2023-04-03T18:53:13;4.50;99.90
20831;DHT22;10576;53.556;9.868;2023-04-03T18:55:39;4.40;99.90
20831;DHT22;10576;53.556;9.868;2023-04-03T18:58:05;4.40;99.90
20831;DHT22;10576;53.556;9.868;2023-04-03T19:00:31;4.40;99.90
20831;DHT22;10576;53.556;9.868;2023-04-03T19:02:57;4.30;99.90
20831;DHT22;10576;53.556;9.868;2023-04-03T19:05:23;4.30;99.90
20831;DHT22;10576;53.556;9.868;2023-04-03T19:07:53;4.20;99.90
20831;DHT22;10576;53.556;9.868;2023-04-03T19:10:19;4.10;99.90
20831;DHT22;10576;53.556;9.868;2023-04-03T19:12:49;4.20;99.90
20831;DHT22;10576;53.556;9.868;2023-04-03T19:15:17;4.20;99.90
20831;DHT22;10576;53.556;9.868;2023-04-03T19:17:44;4.20;99.90
20831;DHT22;10576;53.556;9.868;2023-04-03T19:20:11;4.40;99.90
20831;DHT22;10576;53.556;9.868;2023-04-03T19:22:37;3.90;99.90
20831;DHT22;10576;53.556;9.868;2023-04-03T19:25:04;4.00;99.90
20831;DHT22;10576;53.556;9.868;2023-04-03T19:27:31;4.00;99.90
20831;DHT22;10576;53.556;9.868;2023-04-03T19:29:57;4.00;99.90
20831;DHT22;10576;53.556;9.868;2023-04-03T19:32:23;4.00;99.90
20831;DHT22;10576;53.556;9.868;2023-04-03T19:34:49;3.90;99.90
20831;DHT22;10576;53.556;9.868;2023-04-03T19:37:15;3.90;99.90
20831;DHT22;10576;53.556;9.868;2023-04-03T19:39:41;3.70;99.90
20831;DHT22;10576;53.556;9.868;2023-04-03T19:44:34;3.80;99.90
20831;DHT22;10576;53.556;9.868;2023-04-03T19:47:00;3.80;99.90
20831;DHT22;10576;53.556;9.868;2023-04-03T19:49:27;3.70;99.90
20831;DHT22;10576;53.556;9.868;2023-04-03T19:51:53;3.70;99.90
20831;DHT22;10576;53.556;9.868;2023-04-03T19:54:19;3.60;99.90
20831;DHT22;10576;53.556;9.868;2023-04-03T19:56:45;3.40;99.90
20831;DHT22;10576;53.556;9.868;2023-04-03T19:59:12;3.60;99.90
20831;DHT22;10576;53.556;9.868;2023-04-03T20:01:38;3.50;99.90
20831;DHT22;10576;53.556;9.868;2023-04-03T20:04:04;3.60;99.90
20831;DHT22;10576;53.556;9.868;2023-04-03T20:06:30;3.70;99.90
20831;DHT22;10576;53.556;9.868;2023-04-03T20:08:56;3.30;99.90
20831;DHT22;10576;53.556;9.868;2023-04-03T20:11:22;3.50;99.90
20831;DHT22;10576;53.556;9.868;2023-04-03T20:13:49;3.40;99.90
20831;DHT22;10576;53.556;9.868;2023-04-03T20:16:16;3.50;99.90
20831;DHT22;10576;53.556;9.868;2023-04-03T20:21:08;3.30;99.90
20831;DHT22;10576;53.556;9.868;2023-04-03T20:23:35;3.40;99.90
20831;DHT22;10576;53.556;9.868;2023-04-03T20:26:04;3.40;99.90
20831;DHT22;10576;53.556;9.868;2023-04-03T20:28:30;3.20;99.90
20831;DHT22;10576;53.556;9.868;2023-04-03T20:30:56;3.10;99.90
20831;DHT22;10576;53.556;9.868;2023-04-03T20:33:23;3.10;99.90
20831;DHT22;10576;53.556;9.868;2023-04-03T20:38:18;3.20;99.90
20831;DHT22;10576;53.556;9.868;2023-04-03T20:40:45;3.10;99.90
20831;DHT22;10576;53.556;9.868;2023-04-03T20:43:11;3.10;99.90
20831;DHT22;10576;53.556;9.868;2023-04-03T20:45:36;2.90;99.90
20831;DHT22;10576;53.556;9.868;2023-04-03T20:48:02;2.90;99.90
20831;DHT22;10576;53.556;9.868;2023-04-03T20:50:31;2.90;99.90
20831;DHT22;10576;53.556;9.868;2023-04-03T20:52:57;2.90;99.90
20831;DHT22;10576;53.556;9.868;2023-04-03T20:57:49;2.70;99.90
20831;DHT22;10576;53.556;9.868;2023-04-03T21:00:15;2.70;99.90
20831;DHT22;10576;53.556;9.868;2023-04-03T21:02:45;2.60;99.90
20831;DHT22;10576;53.556;9.868;2023-04-03T21:05:12;2.70;99.90
20831;DHT22;10576;53.556;9.868;2023-04-03T21:19:24;2.50;99.90
20831;DHT22;10576;53.556;9.868;2023-04-03T21:21:51;2.30;99.90
20831;DHT22;10576;53.556;9.868;2023-04-03T21:24:17;2.40;99.90
20831;DHT22;10576;53.556;9.868;2023-04-03T21:26:44;2.40;99.90
20831;DHT22;10576;53.556;9.868;2023-04-03T21:29:11;2.20;99.90
20831;DHT22;10576;53.556;9.868;2023-04-03T21:31:57;2.20;99.90
20831;DHT22;10576;53.556;9.868;2023-04-03T21:34:25;2.00;99.90
20831;DHT22;10576;53.556;9.868;2023-04-03T21:36:55;2.30;99.90
20831;DHT22;10576;53.556;9.868;2023-04-03T21:39:22;2.20;99.90
20831;DHT22;10576;53.556;9.868;2023-04-03T21:41:49;2.20;99.90